createdAt,value
2017-10-17T00:01:40.200Z,95593.56
2017-10-17T00:04:08.572Z,95592.90
2017-10-17T00:06:36.916Z,95585.81
2017-10-17T00:09:05.259Z,95560.52
2017-10-17T00:11:33.650Z,95586.40
2017-10-17T00:14:02.004Z,95590.33
2017-10-17T00:16:30.367Z,95592.31
2017-10-17T00:18:58.746Z,95594.55
2017-10-17T00:21:27.090Z,95589.51
2017-10-17T00:23:55.470Z,95597.21
2017-10-17T00:26:23.819Z,95602.20
2017-10-17T00:28:52.223Z,95601.63
2017-10-17T00:31:20.568Z,95592.46
2017-10-17T00:33:48.912Z,95591.45
2017-10-17T00:36:17.252Z,95591.10
2017-10-17T00:38:46.189Z,95590.47
2017-10-17T00:41:14.559Z,95585.14
2017-10-17T00:43:42.912Z,95577.58
2017-10-17T00:46:12.145Z,95579.58
2017-10-17T00:48:40.584Z,95577.72
2017-10-17T00:51:10.204Z,95572.20
2017-10-17T00:53:38.875Z,95578.16
2017-10-17T00:56:07.879Z,95575.06
2017-10-17T00:58:36.285Z,95572.27
2017-10-17T01:01:04.636Z,95578.89
2017-10-17T01:03:32.983Z,95577.69
2017-10-17T01:06:02.256Z,95570.27
2017-10-17T01:08:30.608Z,95560.70
2017-10-17T01:10:58.986Z,95564.94
2017-10-17T01:13:27.367Z,95561.59
2017-10-17T01:15:55.753Z,95559.30
2017-10-17T01:18:24.124Z,95557.00
2017-10-17T01:20:56.841Z,95558.98
2017-10-17T01:23:43.431Z,95560.03
2017-10-17T01:26:26.665Z,95559.17
2017-10-17T01:28:57.549Z,95559.33
2017-10-17T01:31:25.916Z,95557.41
2017-10-17T01:33:54.276Z,95556.64
2017-10-17T01:36:22.636Z,95568.66
2017-10-17T01:38:53.592Z,95566.47
2017-10-17T01:41:21.936Z,95564.25
2017-10-17T01:43:56.804Z,95564.12
2017-10-17T01:46:25.849Z,95567.66
2017-10-17T01:48:56.851Z,95555.11
2017-10-17T01:51:46.695Z,95564.39
2017-10-17T01:54:21.523Z,95560.86
2017-10-17T01:56:49.903Z,95559.31
2017-10-17T01:59:20.879Z,95563.73
2017-10-17T02:01:49.252Z,95559.56
2017-10-17T02:04:17.600Z,95560.31
2017-10-17T02:06:45.960Z,95558.52
2017-10-17T02:09:14.359Z,95558.09
2017-10-17T02:11:42.728Z,95562.12
2017-10-17T02:14:11.072Z,95563.56
2017-10-17T02:16:39.439Z,95565.00
2017-10-17T02:19:07.782Z,95561.43
2017-10-17T02:21:36.133Z,95558.56
2017-10-17T02:24:04.499Z,95570.15
2017-10-17T02:26:32.851Z,95567.30
2017-10-17T02:29:01.200Z,95560.09
2017-10-17T02:31:30.307Z,95559.33
2017-10-17T02:34:01.119Z,95563.23
2017-10-17T02:36:29.468Z,95554.91
2017-10-17T02:38:57.853Z,95556.50
2017-10-17T02:41:26.240Z,95560.72
2017-10-17T02:43:57.079Z,95551.70
2017-10-17T02:46:25.452Z,95560.70
2017-10-17T02:51:48.829Z,95564.16
2017-10-17T02:54:17.250Z,95544.34
2017-10-17T02:56:45.907Z,95557.73
2017-10-17T02:59:16.744Z,95555.52
2017-10-17T03:01:48.947Z,95541.02
2017-10-17T03:07:19.899Z,95547.36
2017-10-17T03:09:48.259Z,95543.15
2017-10-17T03:12:16.635Z,95544.19
2017-10-17T03:15:08.521Z,95536.88
2017-10-17T03:17:36.912Z,95541.81
2017-10-17T03:20:05.282Z,95538.17
2017-10-17T03:22:33.634Z,95542.74
2017-10-17T03:25:19.643Z,95542.36
2017-10-17T03:27:48.000Z,95540.95
2017-10-17T03:30:16.377Z,95543.31
2017-10-17T03:32:46.128Z,95549.42
2017-10-17T03:35:15.980Z,95552.67
2017-10-17T03:38:02.410Z,95559.07
2017-10-17T03:43:45.994Z,95552.27
2017-10-17T03:46:14.064Z,95557.08
2017-10-17T03:48:42.645Z,95553.52
2017-10-17T03:51:10.716Z,95558.33
2017-10-17T03:53:51.472Z,95553.32
2017-10-17T03:56:30.351Z,95552.47
2017-10-17T03:59:05.067Z,95551.00
2017-10-17T04:01:33.173Z,95557.11
2017-10-17T04:04:04.024Z,95560.20
2017-10-17T04:06:44.665Z,95563.88
2017-10-17T04:09:12.740Z,95568.73
2017-10-17T04:11:40.816Z,95566.81
2017-10-17T04:14:12.796Z,95567.22
2017-10-17T04:16:42.367Z,95572.76
2017-10-17T04:19:11.175Z,95572.94
2017-10-17T04:24:45.364Z,95573.97
2017-10-17T04:27:20.173Z,95587.41
2017-10-17T04:29:57.796Z,95582.27
2017-10-17T04:32:37.407Z,95583.99
2017-10-17T04:35:08.909Z,95578.90
2017-10-17T04:37:50.745Z,95582.42
2017-10-17T04:40:20.593Z,95583.02
2017-10-17T04:43:04.169Z,95586.80
2017-10-17T04:45:47.610Z,95586.64
2017-10-17T04:51:38.964Z,95585.47
2017-10-17T04:54:12.336Z,95587.55
2017-10-17T04:56:41.097Z,95595.28
2017-10-17T05:02:29.343Z,95590.98
2017-10-17T05:04:59.070Z,95590.42
2017-10-17T05:07:29.791Z,95594.50
2017-10-17T05:10:29.211Z,95593.64
2017-10-17T05:16:05.672Z,95610.93
2017-10-17T05:18:40.253Z,95604.08
2017-10-17T05:21:08.388Z,95600.97
2017-10-17T05:26:41.008Z,95604.83
2017-10-17T05:29:13.744Z,95598.41
2017-10-17T05:31:43.596Z,95600.84
2017-10-17T05:34:30.473Z,95597.63
2017-10-17T05:37:01.391Z,95604.73
2017-10-17T05:39:33.613Z,95603.36
2017-10-17T05:42:01.700Z,95603.36
2017-10-17T05:44:46.627Z,95597.91
2017-10-17T05:47:36.336Z,95598.05
2017-10-17T05:50:15.894Z,95596.55
2017-10-17T05:52:47.873Z,95589.23
2017-10-17T05:55:15.944Z,95587.61
2017-10-17T05:57:44.024Z,95599.06
2017-10-17T06:00:12.131Z,95595.08
2017-10-17T06:02:40.231Z,95599.07
2017-10-17T06:05:08.312Z,95598.95
2017-10-17T06:07:36.428Z,95601.08
2017-10-17T06:10:04.551Z,95606.80
2017-10-17T06:12:33.320Z,95612.17
2017-10-17T06:15:01.437Z,95619.55
2017-10-17T06:17:31.579Z,95619.05
2017-10-17T06:19:59.931Z,95623.66
2017-10-17T06:22:28.308Z,95626.03
2017-10-17T06:24:57.374Z,95628.05
2017-10-17T06:27:25.888Z,95622.02
2017-10-17T06:29:54.292Z,95629.34
2017-10-17T06:32:22.661Z,95632.30
2017-10-17T06:34:51.028Z,95629.02
2017-10-17T06:37:19.414Z,95630.12
2017-10-17T06:39:47.808Z,95627.75
2017-10-17T06:42:16.192Z,95629.09
2017-10-17T06:44:44.588Z,95632.57
2017-10-17T06:47:12.972Z,95625.52
2017-10-17T06:49:41.402Z,95624.93
2017-10-17T06:52:09.751Z,95633.09
2017-10-17T06:54:38.121Z,95633.16
2017-10-17T06:57:06.536Z,95635.68
2017-10-17T06:59:34.896Z,95637.30
2017-10-17T07:02:03.260Z,95638.91
2017-10-17T07:04:31.656Z,95631.53
2017-10-17T07:07:00.020Z,95643.44
2017-10-17T07:09:28.420Z,95637.41
2017-10-17T07:11:56.787Z,95641.56
2017-10-17T07:14:25.142Z,95641.84
2017-10-17T07:16:53.534Z,95645.72
2017-10-17T07:19:21.885Z,95645.23
2017-10-17T07:21:50.260Z,95650.30
2017-10-17T07:24:18.620Z,95650.09
2017-10-17T07:26:47.298Z,95645.98
2017-10-17T07:29:16.095Z,95650.09
2017-10-17T07:31:44.831Z,95643.38
2017-10-17T07:34:13.648Z,95642.36
2017-10-17T07:36:42.380Z,95636.14
2017-10-17T07:39:11.706Z,95640.33
2017-10-17T07:41:40.462Z,95637.36
2017-10-17T07:44:10.553Z,95637.61
2017-10-17T07:46:39.280Z,95641.91
2017-10-17T07:49:08.012Z,95639.70
2017-10-17T07:51:36.764Z,95636.81
2017-10-17T07:54:05.566Z,95627.69
2017-10-17T07:56:34.557Z,95636.85
2017-10-17T07:59:03.280Z,95628.96
2017-10-17T08:01:33.741Z,95631.85
2017-10-17T08:04:02.676Z,95622.69
2017-10-17T08:06:31.417Z,95618.23
2017-10-17T08:09:00.333Z,95621.89
2017-10-17T08:11:30.443Z,95617.28
2017-10-17T08:14:00.111Z,95620.23
2017-10-17T08:16:28.923Z,95618.13
2017-10-17T08:18:58.483Z,95615.48
2017-10-17T08:21:28.028Z,95620.03
2017-10-17T08:23:57.277Z,95612.19
2017-10-17T08:26:26.070Z,95612.14
2017-10-17T08:28:54.975Z,95613.13
2017-10-17T08:31:24.794Z,95611.72
2017-10-17T08:33:55.165Z,95610.19
2017-10-17T08:36:23.853Z,95608.16
2017-10-17T08:38:52.653Z,95607.52
2017-10-17T08:41:21.379Z,95602.69
2017-10-17T08:43:50.074Z,95602.36
2017-10-17T08:46:19.755Z,95609.50
2017-10-17T08:48:50.126Z,95608.33
2017-10-17T08:51:19.821Z,95598.88
2017-10-17T08:53:48.598Z,95600.66
2017-10-17T08:56:17.361Z,95595.61
2017-10-17T08:58:46.877Z,95596.13
2017-10-17T09:01:15.619Z,95587.30
2017-10-17T09:03:44.962Z,95591.87
2017-10-17T09:06:13.947Z,95589.33
2017-10-17T09:08:42.674Z,95591.56
2017-10-17T09:11:11.492Z,95592.02
2017-10-17T09:13:40.143Z,95593.39
2017-10-17T09:16:08.897Z,95597.75
2017-10-17T09:18:37.660Z,95596.46
2017-10-17T09:21:06.456Z,95598.52
2017-10-17T09:23:35.358Z,95595.85
2017-10-17T09:26:04.797Z,95600.63
2017-10-17T09:28:33.987Z,95602.48
2017-10-17T09:31:03.151Z,95602.30
2017-10-17T09:33:33.045Z,95599.08
2017-10-17T09:36:02.122Z,95599.75
2017-10-17T09:38:31.839Z,95596.86
2017-10-17T09:41:00.596Z,95597.48
2017-10-17T09:43:29.308Z,95595.63
2017-10-17T09:45:58.040Z,95604.38
2017-10-17T09:48:26.875Z,95600.97
2017-10-17T09:50:56.077Z,95598.76
2017-10-17T09:53:24.764Z,95590.25
2017-10-17T09:55:53.604Z,95591.98
2017-10-17T09:58:22.359Z,95588.89
2017-10-17T10:00:50.803Z,95589.59
2017-10-17T10:03:19.198Z,95591.84
2017-10-17T10:05:47.584Z,95584.63
2017-10-17T10:08:15.948Z,95588.27
2017-10-17T10:10:44.327Z,95581.61
2017-10-17T10:13:12.684Z,95585.61
2017-10-17T10:15:41.947Z,95583.02
2017-10-17T10:18:11.256Z,95587.15
2017-10-17T10:20:39.609Z,95587.42
2017-10-17T10:23:07.968Z,95585.25
2017-10-17T10:25:36.337Z,95589.20
2017-10-17T10:28:04.724Z,95587.89
2017-10-17T10:30:33.121Z,95591.56
2017-10-17T10:33:01.488Z,95587.27
2017-10-17T10:35:29.901Z,95585.73
2017-10-17T10:37:58.509Z,95585.02
2017-10-17T10:40:28.176Z,95586.34
2017-10-17T10:42:57.631Z,95584.09
2017-10-17T10:45:26.417Z,95584.72
2017-10-17T10:47:56.126Z,95574.19
2017-10-17T10:50:24.750Z,95577.05
2017-10-17T10:52:53.555Z,95575.02
2017-10-17T10:55:22.518Z,95573.58
2017-10-17T10:57:51.279Z,95569.38
2017-10-17T11:00:20.053Z,95566.77
2017-10-17T11:02:48.883Z,95568.45
2017-10-17T11:05:19.179Z,95566.22
2017-10-17T11:07:52.655Z,95567.92
2017-10-17T11:10:22.068Z,95564.37
2017-10-17T11:12:50.784Z,95560.86
2017-10-17T11:15:20.758Z,95560.19
2017-10-17T11:17:53.147Z,95553.17
2017-10-17T11:20:22.826Z,95548.09
2017-10-17T11:22:52.011Z,95546.36
2017-10-17T11:25:20.770Z,95546.68
2017-10-17T11:27:50.497Z,95539.89
2017-10-17T11:30:19.512Z,95541.56
2017-10-17T11:32:48.227Z,95535.13
2017-10-17T11:35:16.901Z,95532.88
2017-10-17T11:37:45.781Z,95533.49
2017-10-17T11:40:17.472Z,95537.02
2017-10-17T11:42:58.753Z,95526.87
2017-10-17T11:45:27.484Z,95527.08
2017-10-17T11:47:56.247Z,95519.28
2017-10-17T11:50:25.987Z,95514.23
2017-10-17T11:52:54.704Z,95509.47
2017-10-17T11:55:23.576Z,95508.62
2017-10-17T11:57:52.287Z,95506.77
2017-10-17T12:00:21.111Z,95507.03
2017-10-17T12:02:50.265Z,95499.65
2017-10-17T12:05:19.143Z,95504.68
2017-10-17T12:07:47.850Z,95500.17
2017-10-17T12:10:16.874Z,95491.26
2017-10-17T12:12:45.708Z,95492.55
2017-10-17T12:15:15.333Z,95494.08
2017-10-17T12:17:44.112Z,95486.50
2017-10-17T12:20:13.822Z,95491.05
2017-10-17T12:22:42.600Z,95482.39
2017-10-17T12:25:11.653Z,95480.17
2017-10-17T12:27:40.435Z,95473.94
2017-10-17T12:30:09.172Z,95472.30
2017-10-17T12:32:37.913Z,95458.16
2017-10-17T12:35:06.981Z,95463.95
2017-10-17T12:37:36.538Z,95454.55
2017-10-17T12:40:06.812Z,95452.97
2017-10-17T12:42:36.256Z,95445.91
2017-10-17T12:45:04.685Z,95445.97
2017-10-17T12:47:33.063Z,95447.16
2017-10-17T12:50:01.417Z,95453.40
2017-10-17T12:52:29.804Z,95448.82
2017-10-17T12:54:58.179Z,95449.52
2017-10-17T12:57:26.564Z,95440.80
2017-10-17T12:59:54.951Z,95442.57
2017-10-17T13:02:23.336Z,95437.67
2017-10-17T13:04:51.705Z,95440.47
2017-10-17T13:07:20.060Z,95441.00
2017-10-17T13:09:48.701Z,95437.48
2017-10-17T13:12:17.176Z,95436.47
2017-10-17T13:14:45.591Z,95439.41
2017-10-17T13:17:14.283Z,95432.75
2017-10-17T13:19:44.712Z,95428.00
2017-10-17T13:22:14.434Z,95427.75
2017-10-17T13:24:43.167Z,95425.89
2017-10-17T13:27:12.026Z,95422.89
2017-10-17T13:29:40.759Z,95415.39
2017-10-17T13:32:09.606Z,95418.13
2017-10-17T13:34:38.224Z,95416.75
2017-10-17T13:37:07.127Z,95414.70
2017-10-17T13:39:37.395Z,95414.86
2017-10-17T13:42:06.939Z,95418.09
2017-10-17T13:44:37.698Z,95411.48
2017-10-17T13:47:07.334Z,95405.80
2017-10-17T13:49:36.316Z,95401.73
2017-10-17T13:52:06.062Z,95402.67
2017-10-17T13:54:35.071Z,95398.14
2017-10-17T13:57:03.929Z,95398.53
2017-10-17T13:59:33.599Z,95394.67
2017-10-17T14:02:03.474Z,95395.83
2017-10-17T14:04:32.206Z,95395.13
2017-10-17T14:07:02.422Z,95394.86
2017-10-17T14:09:32.057Z,95390.95
2017-10-17T14:12:03.102Z,95390.64
2017-10-17T14:14:33.655Z,95390.42
2017-10-17T14:17:02.916Z,95394.80
2017-10-17T14:19:33.941Z,95387.89
2017-10-17T14:22:03.162Z,95384.25
2017-10-17T14:24:31.962Z,95382.64
2017-10-17T14:27:00.930Z,95386.56
2017-10-17T14:29:29.712Z,95384.84
2017-10-17T14:31:59.503Z,95384.33
2017-10-17T14:34:28.330Z,95384.54
2017-10-17T14:36:57.055Z,95382.81
2017-10-17T14:39:26.034Z,95384.24
2017-10-17T14:41:55.989Z,95388.98
2017-10-17T14:44:26.394Z,95385.84
2017-10-17T14:46:57.141Z,95376.45
2017-10-17T14:49:26.816Z,95381.13
2017-10-17T14:51:56.366Z,95383.23
2017-10-17T14:54:25.280Z,95380.11
2017-10-17T14:56:55.746Z,95370.20
2017-10-17T14:59:24.486Z,95373.70
2017-10-17T15:01:54.010Z,95368.71
2017-10-17T15:04:23.889Z,95373.53
2017-10-17T15:06:52.664Z,95368.23
2017-10-17T15:09:21.210Z,95363.26
2017-10-17T15:11:51.192Z,95359.63
2017-10-17T15:14:20.967Z,95367.02
2017-10-17T15:16:50.141Z,95362.34
2017-10-17T15:19:19.768Z,95365.91
2017-10-17T15:21:48.780Z,95370.42
2017-10-17T15:24:18.780Z,95363.43
2017-10-17T15:26:47.574Z,95367.99
2017-10-17T15:29:19.121Z,95371.17
2017-10-17T15:31:48.486Z,95368.63
2017-10-17T15:34:19.223Z,95361.63
2017-10-17T15:36:47.669Z,95356.11
2017-10-17T15:39:16.020Z,95355.42
2017-10-17T15:41:44.406Z,95355.77
2017-10-17T15:44:13.113Z,95354.92
2017-10-17T15:46:41.970Z,95350.77
2017-10-17T15:49:10.703Z,95352.63
2017-10-17T15:51:39.530Z,95354.70
2017-10-17T15:54:09.834Z,95351.84
2017-10-17T15:56:38.504Z,95350.93
2017-10-17T15:59:08.453Z,95345.61
2017-10-17T16:01:37.504Z,95346.96
2017-10-17T16:04:06.531Z,95341.17
2017-10-17T16:06:35.195Z,95341.25
2017-10-17T16:09:05.564Z,95346.67
2017-10-17T16:11:33.978Z,95342.30
2017-10-17T16:14:02.475Z,95336.37
2017-10-17T16:16:30.911Z,95338.59
2017-10-17T16:18:59.316Z,95343.59
2017-10-17T16:21:27.680Z,95346.34
2017-10-17T16:23:56.065Z,95346.61
2017-10-17T16:26:24.512Z,95346.08
2017-10-17T16:28:52.880Z,95348.97
2017-10-17T16:31:21.232Z,95342.58
2017-10-17T16:33:49.591Z,95340.75
2017-10-17T16:36:17.973Z,95342.20
2017-10-17T16:38:46.333Z,95339.47
2017-10-17T16:41:15.062Z,95340.75
2017-10-17T16:43:47.239Z,95344.53
2017-10-17T16:46:15.800Z,95335.50
2017-10-17T16:48:44.358Z,95335.25
2017-10-17T16:51:12.877Z,95328.50
2017-10-17T16:53:41.467Z,95337.34
2017-10-17T16:56:10.109Z,95340.42
2017-10-17T16:58:39.530Z,95340.54
2017-10-17T17:01:08.007Z,95340.80
2017-10-17T17:03:36.701Z,95337.28
2017-10-17T17:06:05.354Z,95334.44
2017-10-17T17:08:33.787Z,95333.69
2017-10-17T17:11:02.436Z,95340.37
2017-10-17T17:13:33.050Z,95335.11
2017-10-17T17:16:01.672Z,95340.48
2017-10-17T17:18:30.303Z,95343.03
2017-10-17T17:21:00.181Z,95346.72
2017-10-17T17:23:29.594Z,95349.05
2017-10-17T17:25:58.340Z,95362.52
2017-10-17T17:28:27.073Z,95354.41
2017-10-17T17:30:55.696Z,95353.42
2017-10-17T17:33:24.077Z,95352.91
2017-10-17T17:35:52.436Z,95348.85
2017-10-17T17:38:20.824Z,95354.05
2017-10-17T17:40:49.203Z,95351.22
2017-10-17T17:43:17.588Z,95349.28
2017-10-17T17:48:35.856Z,95348.78
2017-10-17T17:51:10.321Z,95347.06
2017-10-17T17:53:42.739Z,95350.41
2017-10-17T18:01:50.596Z,95349.39
2017-10-17T18:04:20.339Z,95353.23
2017-10-17T18:06:48.753Z,95351.02
2017-10-17T18:09:17.184Z,95347.73
2017-10-17T18:11:45.541Z,95343.36
2017-10-17T18:14:13.912Z,95353.88
2017-10-17T18:16:42.273Z,95351.31
2017-10-17T18:19:10.635Z,95357.41
2017-10-17T18:21:39.023Z,95350.48
2017-10-17T18:24:07.397Z,95349.16
2017-10-17T18:26:35.791Z,95352.09
2017-10-17T18:29:04.155Z,95348.39
2017-10-17T18:31:32.521Z,95341.47
2017-10-17T18:34:00.881Z,95343.06
2017-10-17T18:36:29.249Z,95336.37
2017-10-17T18:39:05.228Z,95343.47
2017-10-17T18:44:41.236Z,95341.34
2017-10-17T18:47:15.223Z,95343.59
2017-10-17T18:49:56.498Z,95342.77
2017-10-17T18:52:31.361Z,95330.45
2017-10-17T18:55:02.421Z,95326.73
2017-10-17T18:57:30.916Z,95325.83
2017-10-17T18:59:59.461Z,95326.57
2017-10-17T19:02:28.147Z,95322.72
2017-10-17T19:04:56.824Z,95324.88
2017-10-17T19:07:25.410Z,95325.00
2017-10-17T19:09:54.039Z,95319.21
2017-10-17T19:12:22.545Z,95318.83
2017-10-17T19:14:51.098Z,95313.78
2017-10-17T19:17:19.766Z,95315.72
2017-10-17T19:19:48.336Z,95316.97
2017-10-17T19:22:16.807Z,95309.15
2017-10-17T19:24:45.229Z,95307.75
2017-10-17T19:27:13.606Z,95309.44
2017-10-17T19:29:42.054Z,95302.69
2017-10-17T19:32:10.439Z,95302.40
2017-10-17T19:34:38.877Z,95297.38
2017-10-17T19:37:07.444Z,95301.48
2017-10-17T19:39:35.881Z,95298.09
2017-10-17T19:42:04.272Z,95297.93
2017-10-17T19:44:32.656Z,95296.24
2017-10-17T19:47:01.020Z,95292.88
2017-10-17T19:49:30.163Z,95295.08
2017-10-17T19:51:59.638Z,95294.64
2017-10-17T19:54:28.170Z,95302.89
2017-10-17T19:56:56.790Z,95297.48
2017-10-17T19:59:25.501Z,95304.64
2017-10-17T20:01:54.108Z,95291.20
2017-10-17T20:04:22.751Z,95284.27
2017-10-17T20:06:51.372Z,95285.95
2017-10-17T20:09:20.005Z,95289.36
2017-10-17T20:11:48.690Z,95286.03
2017-10-17T20:14:17.303Z,95280.56
2017-10-17T20:16:45.980Z,95277.13
2017-10-17T20:19:14.644Z,95275.65
2017-10-17T20:21:43.386Z,95275.39
2017-10-17T20:24:12.125Z,95281.73
2017-10-17T20:26:40.706Z,95281.81
2017-10-17T20:29:09.130Z,95280.06
2017-10-17T20:31:37.500Z,95279.66
2017-10-17T20:34:05.937Z,95277.50
2017-10-17T20:36:38.672Z,95275.48
2017-10-17T20:39:09.550Z,95273.28
2017-10-17T20:41:38.112Z,95279.34
2017-10-17T20:44:06.520Z,95274.77
2017-10-17T20:46:36.675Z,95270.20
2017-10-17T20:49:05.331Z,95270.96
2017-10-17T20:51:33.705Z,95269.23
2017-10-17T20:54:02.078Z,95271.70
2017-10-17T20:56:30.464Z,95270.51
2017-10-17T20:58:58.821Z,95267.32
2017-10-17T21:01:27.188Z,95263.92
2017-10-17T21:03:55.719Z,95267.27
2017-10-17T21:06:24.084Z,95263.87
2017-10-17T21:08:52.476Z,95268.53
2017-10-17T21:11:20.840Z,95265.16
2017-10-17T21:13:49.232Z,95261.16
2017-10-17T21:16:17.579Z,95260.44
2017-10-17T21:18:45.976Z,95254.38
2017-10-17T21:21:14.369Z,95257.47
2017-10-17T21:23:42.730Z,95261.30
2017-10-17T21:26:11.094Z,95257.68
2017-10-17T21:28:39.449Z,95260.00
2017-10-17T21:31:07.810Z,95256.38
2017-10-17T21:33:36.176Z,95244.14
2017-10-17T21:36:04.572Z,95254.75
2017-10-17T21:38:32.936Z,95245.16
2017-10-17T21:41:01.316Z,95239.33
2017-10-17T21:43:29.676Z,95236.58
2017-10-17T21:45:58.055Z,95233.09
2017-10-17T21:48:26.476Z,95231.66
2017-10-17T21:50:54.842Z,95222.20
2017-10-17T21:53:23.196Z,95223.48
2017-10-17T21:55:51.556Z,95222.10
2017-10-17T21:58:19.924Z,95216.39
2017-10-17T22:00:59.905Z,95217.00
2017-10-17T22:03:28.600Z,95217.86
2017-10-17T22:08:32.682Z,95210.64
2017-10-17T22:11:01.347Z,95209.64
2017-10-17T22:13:30.114Z,95206.28
2017-10-17T22:15:58.809Z,95204.47
2017-10-17T22:18:27.285Z,95201.15
2017-10-17T22:20:55.641Z,95202.44
2017-10-17T22:23:24.012Z,95206.72
2017-10-17T22:25:52.367Z,95199.23
2017-10-17T22:28:20.761Z,95197.78
2017-10-17T22:30:49.153Z,95189.80
2017-10-17T22:33:17.512Z,95190.50
2017-10-17T22:35:45.876Z,95194.41
2017-10-17T22:38:14.237Z,95187.11
2017-10-17T22:40:42.594Z,95181.85
2017-10-17T22:43:10.959Z,95184.92
2017-10-17T22:45:39.343Z,95184.67
2017-10-17T22:48:07.703Z,95182.20
2017-10-17T22:50:36.064Z,95181.09
2017-10-17T22:53:04.433Z,95177.22
2017-10-17T22:55:32.800Z,95183.58
2017-10-17T22:58:01.163Z,95175.49
2017-10-17T23:00:29.516Z,95179.14
2017-10-17T23:02:57.877Z,95170.88
2017-10-17T23:05:26.279Z,95176.87
2017-10-17T23:07:54.642Z,95168.34
2017-10-17T23:10:22.999Z,95169.62
2017-10-17T23:12:51.377Z,95160.69
2017-10-17T23:15:19.741Z,95168.44
2017-10-17T23:17:59.767Z,95163.20
2017-10-17T23:20:38.104Z,95165.80
2017-10-17T23:23:06.500Z,95170.78
2017-10-17T23:25:34.864Z,95171.84
2017-10-17T23:28:03.220Z,95169.79
2017-10-17T23:30:31.644Z,95167.75
2017-10-17T23:33:00.004Z,95169.33
2017-10-17T23:35:28.395Z,95163.88
2017-10-17T23:37:56.794Z,95156.39
2017-10-17T23:40:25.191Z,95158.83
2017-10-17T23:42:53.552Z,95154.63
2017-10-17T23:45:21.907Z,95154.13
2017-10-17T23:47:50.296Z,95156.61
2017-10-17T23:50:18.656Z,95149.14
2017-10-17T23:52:47.020Z,95150.54
2017-10-17T23:55:15.376Z,95149.25
2017-10-17T23:57:43.748Z,95153.28
